Paz Navigator — PBLM — position and weather

sailwx.info

Track history (hours):
 
Tides and Currents Weather Stations Pressure Air Temp Water Temp Dewpoint Dewpoint Depression Visibility Wind Speed Wind Dir Waves Ship Positions

Paz Navigator

Last reported at 2018-Feb-20 21:58 UTC. Time now 2018-Feb-22 20:34 UTC.
Position N 28°23' W 015°10'.

Length 118 m; draft 4.5 m.

Type: Cargo ship. MMSI: 244790009.

Date/timePositionNaut miles runAvg speedWind from/ knotsBaromVisibWave heightAir tempDewpointWater temp
2018-Feb-20 21:58N 28°23' W 015°10'1 1.3
2018-Feb-20 21:09N 28°24' W 015°10'0 1.3
2018-Feb-20 21:00N 28°24' W 015°10'1 1.3
2018-Feb-20 20:31N 28°25' W 015°10'1 1.2
2018-Feb-20 20:00N 28°25' W 015°09'1 1.1
2018-Feb-20 19:25N 28°26' W 015°09'1 1.2
2018-Feb-20 18:53N 28°26' W 015°09'0 1.2
2018-Feb-20 18:30N 28°27' W 015°09'1 1.2
2018-Feb-20 17:59N 28°27' W 015°09'1 1.2
2018-Feb-20 17:31N 28°28' W 015°10'3 3.7
2018-Feb-20 16:45N 28°26' W 015°11'312.2
2018-Feb-20 16:29N 28°23' W 015°12'612.4
2018-Feb-20 16:00N 28°17' W 015°15'612.5
2018-Feb-20 15:31N 28°11' W 015°18'510.9
2018-Feb-20 15:00N 28°07' W 015°21'2 4.2
2018-Feb-20 14:30N 28°06' W 015°19'612.1
2018-Feb-20 14:00N 28°05' W 015°12'5 9.2
2018-Feb-20 13:30N 28°05' W 015°07'4 8.8
2018-Feb-20 13:00N 28°04' W 015°02'  
Track history (hours):
 
Tides and Currents Weather Stations Pressure Air Temp Water Temp Dewpoint Dewpoint Depression Visibility Wind Speed Wind Dir Waves Ship Positions

Paz Navigator

Last reported at 2018-Feb-20 21:58 UTC. Time now 2018-Feb-22 20:34 UTC.
Position N 28°23' W 015°10'.

Length 118 m; draft 4.5 m.

Type: Cargo ship. MMSI: 244790009.

Date/timePositionNaut miles runAvg speedWind from/ knotsBaromVisibWave heightAir tempDewpointWater temp
2018-Feb-20 21:58N 28°23' W 015°10'1 1.3
2018-Feb-20 21:09N 28°24' W 015°10'0 1.3
2018-Feb-20 21:00N 28°24' W 015°10'1 1.3
2018-Feb-20 20:31N 28°25' W 015°10'1 1.2
2018-Feb-20 20:00N 28°25' W 015°09'1 1.1
2018-Feb-20 19:25N 28°26' W 015°09'1 1.2
2018-Feb-20 18:53N 28°26' W 015°09'0 1.2
2018-Feb-20 18:30N 28°27' W 015°09'1 1.2
2018-Feb-20 17:59N 28°27' W 015°09'1 1.2
2018-Feb-20 17:31N 28°28' W 015°10'3 3.7
2018-Feb-20 16:45N 28°26' W 015°11'312.2
2018-Feb-20 16:29N 28°23' W 015°12'612.4
2018-Feb-20 16:00N 28°17' W 015°15'612.5
2018-Feb-20 15:31N 28°11' W 015°18'510.9
2018-Feb-20 15:00N 28°07' W 015°21'2 4.2
2018-Feb-20 14:30N 28°06' W 015°19'612.1
2018-Feb-20 14:00N 28°05' W 015°12'5 9.2
2018-Feb-20 13:30N 28°05' W 015°07'4 8.8
2018-Feb-20 13:00N 28°04' W 015°02'  

Dump ship's entire track history